createdAt,value
2019-01-18T00:02:34.674Z,2.20
2019-01-18T00:05:39.497Z,1.30
2019-01-18T00:08:44.428Z,1.03
2019-01-18T00:11:50.642Z,1.27
2019-01-18T00:14:55.665Z,2.83
2019-01-18T00:18:00.650Z,1.80
2019-01-18T00:21:05.619Z,1.50
2019-01-18T00:24:10.609Z,1.40
2019-01-18T00:27:16.162Z,1.90
2019-01-18T00:30:21.266Z,1.83
2019-01-18T00:33:26.264Z,1.63
2019-01-18T00:36:31.113Z,1.27
2019-01-18T00:39:36.154Z,4.90
2019-01-18T00:42:41.172Z,2.20
2019-01-18T00:45:46.409Z,1.20
2019-01-18T00:48:51.521Z,1.27
2019-01-18T00:51:56.531Z,1.20
2019-01-18T00:55:01.415Z,1.80
2019-01-18T00:58:06.769Z,2.40
2019-01-18T01:01:11.932Z,1.10
2019-01-18T01:04:16.846Z,3.23
2019-01-18T01:07:21.776Z,1.73
2019-01-18T01:10:26.731Z,2.03
2019-01-18T01:13:31.818Z,1.30
2019-01-18T01:16:36.870Z,2.07
2019-01-18T01:19:42.086Z,1.93
2019-01-18T01:22:47.461Z,2.30
2019-01-18T01:25:52.518Z,1.70
2019-01-18T01:28:57.503Z,1.40
2019-01-18T01:32:02.450Z,1.97
2019-01-18T01:35:08.038Z,1.30
2019-01-18T01:38:13.014Z,2.10
2019-01-18T01:41:25.994Z,1.53
2019-01-18T01:44:31.089Z,2.30
2019-01-18T01:47:35.986Z,1.40
2019-01-18T01:50:41.061Z,2.50
2019-01-18T01:53:48.340Z,2.00
2019-01-18T01:56:53.481Z,2.53
2019-01-18T01:59:58.529Z,1.70
2019-01-18T02:03:03.771Z,1.73
2019-01-18T02:06:08.796Z,3.00
2019-01-18T02:09:13.814Z,2.93
2019-01-18T02:12:18.759Z,3.20
2019-01-18T02:15:26.076Z,2.53
2019-01-18T02:18:31.117Z,3.00
2019-01-18T02:21:36.266Z,3.23
2019-01-18T02:24:41.195Z,1.50
2019-01-18T02:27:46.576Z,1.40
2019-01-18T02:30:51.576Z,1.50
2019-01-18T02:33:56.658Z,3.07
2019-01-18T02:37:01.657Z,1.90
2019-01-18T02:40:07.627Z,1.67
2019-01-18T02:43:12.727Z,1.67
2019-01-18T02:46:18.058Z,2.40
2019-01-18T02:49:23.169Z,1.17
2019-01-18T02:52:28.180Z,1.37
2019-01-18T02:55:33.404Z,2.90
2019-01-18T02:58:38.480Z,1.73
2019-01-18T03:01:43.493Z,1.90
2019-01-18T03:04:48.661Z,2.30
2019-01-18T03:07:54.083Z,2.07
2019-01-18T03:10:59.181Z,1.60
2019-01-18T03:14:04.318Z,1.50
2019-01-18T03:17:09.210Z,1.70
2019-01-18T03:20:15.258Z,2.00
2019-01-18T03:23:20.624Z,2.00
2019-01-18T03:26:25.353Z,3.40
2019-01-18T03:29:30.409Z,2.10
2019-01-18T03:32:35.551Z,2.13
2019-01-18T03:35:40.323Z,1.87
2019-01-18T03:38:45.016Z,2.10
2019-01-18T03:41:49.725Z,3.50
2019-01-18T03:44:54.404Z,1.90
2019-01-18T03:47:59.227Z,2.33
2019-01-18T03:51:04.121Z,2.53
2019-01-18T03:54:08.852Z,5.33
2019-01-18T03:57:13.498Z,4.90
2019-01-18T04:00:25.666Z,4.63
2019-01-18T04:03:27.057Z,3.40
2019-01-18T04:06:31.803Z,6.07
2019-01-18T04:09:36.498Z,7.57
2019-01-18T04:12:41.202Z,4.80
2019-01-18T04:15:45.931Z,3.03
2019-01-18T04:18:50.919Z,2.70
2019-01-18T04:21:56.203Z,3.33
2019-01-18T04:25:01.192Z,2.90
2019-01-18T04:28:06.267Z,4.40
2019-01-18T04:31:11.135Z,5.00
2019-01-18T04:34:16.128Z,7.47
2019-01-18T04:37:21.144Z,7.50
2019-01-18T04:40:27.063Z,6.43
2019-01-18T04:43:32.231Z,3.80
2019-01-18T04:46:37.305Z,3.17
2019-01-18T04:49:42.508Z,3.90
2019-01-18T04:52:47.601Z,3.20
2019-01-18T04:55:52.823Z,3.23
2019-01-18T04:58:57.787Z,3.77
2019-01-18T05:02:02.781Z,2.67
2019-01-18T05:05:08.273Z,3.07
2019-01-18T05:08:13.280Z,5.57
2019-01-18T05:11:18.532Z,2.97
2019-01-18T05:14:23.467Z,2.83
2019-01-18T05:17:28.357Z,3.33
2019-01-18T05:20:33.245Z,2.77
2019-01-18T05:23:38.302Z,2.50
2019-01-18T05:26:43.403Z,4.57
2019-01-18T05:29:48.424Z,5.77
2019-01-18T05:32:53.379Z,3.50
2019-01-18T05:35:58.341Z,3.27
2019-01-18T05:39:03.818Z,2.80
2019-01-18T05:42:08.705Z,5.57
2019-01-18T05:45:16.231Z,4.30
2019-01-18T05:48:21.457Z,3.50
2019-01-18T05:51:26.377Z,4.40
2019-01-18T05:54:31.532Z,4.40
2019-01-18T05:57:36.465Z,5.73
2019-01-18T06:00:44.702Z,4.37
2019-01-18T06:03:49.510Z,4.50
2019-01-18T06:06:54.487Z,4.30
2019-01-18T06:09:59.476Z,5.53
2019-01-18T06:13:04.617Z,5.63
2019-01-18T06:16:09.574Z,4.93
2019-01-18T06:19:14.413Z,5.77
2019-01-18T06:22:19.387Z,7.10
2019-01-18T06:25:24.371Z,5.53
2019-01-18T06:28:29.514Z,6.50
2019-01-18T06:31:34.460Z,6.30
2019-01-18T06:34:39.675Z,5.87
2019-01-18T06:37:45.295Z,5.87
2019-01-18T06:40:50.995Z,8.30
2019-01-18T06:43:56.085Z,9.00
2019-01-18T06:47:01.165Z,5.60
2019-01-18T06:50:08.821Z,5.17
2019-01-18T06:53:13.728Z,6.00
2019-01-18T06:56:18.964Z,5.63
2019-01-18T06:59:23.834Z,6.60
2019-01-18T07:02:29.157Z,5.40
2019-01-18T07:05:34.213Z,4.90
2019-01-18T07:08:39.451Z,5.70
2019-01-18T07:11:44.560Z,4.97
2019-01-18T07:14:49.443Z,9.60
2019-01-18T07:17:54.366Z,5.80
2019-01-18T07:20:59.419Z,4.97
2019-01-18T07:24:04.612Z,5.20
2019-01-18T07:27:09.673Z,4.60
2019-01-18T07:30:17.625Z,4.70
2019-01-18T07:33:22.595Z,4.70
2019-01-18T07:36:27.550Z,4.83
2019-01-18T07:39:32.444Z,4.90
2019-01-18T07:42:37.480Z,4.80
2019-01-18T07:45:42.368Z,5.80
2019-01-18T07:48:47.597Z,7.40
2019-01-18T07:51:52.861Z,6.17
2019-01-18T07:54:57.976Z,6.20
2019-01-18T07:58:02.929Z,7.17
2019-01-18T08:01:07.898Z,8.67
2019-01-18T08:04:13.010Z,6.40
2019-01-18T08:07:36.795Z,6.70
2019-01-18T08:10:41.730Z,6.10
2019-01-18T08:13:46.832Z,6.83
2019-01-18T08:16:51.816Z,7.40
2019-01-18T08:19:56.736Z,7.77
2019-01-18T08:23:02.502Z,8.47
2019-01-18T08:26:08.899Z,8.37
2019-01-18T08:29:14.085Z,6.93
2019-01-18T08:32:18.841Z,7.93
2019-01-18T08:35:24.496Z,8.03
2019-01-18T08:38:29.652Z,7.30
2019-01-18T08:41:34.947Z,7.07
2019-01-18T08:44:39.939Z,7.23
2019-01-18T08:48:03.911Z,6.97
2019-01-18T08:51:08.752Z,7.10
2019-01-18T08:54:22.805Z,5.20
2019-01-18T08:57:28.180Z,5.83
2019-01-18T09:00:33.106Z,7.73
2019-01-18T09:03:38.061Z,6.60
2019-01-18T09:06:43.133Z,9.33
2019-01-18T09:09:48.096Z,8.87
2019-01-18T09:12:53.193Z,10.70
2019-01-18T09:15:58.332Z,9.80
2019-01-18T09:19:03.487Z,8.33
2019-01-18T09:22:08.401Z,8.80
2019-01-18T09:25:13.816Z,9.83
2019-01-18T09:28:18.924Z,11.10
2019-01-18T09:31:23.855Z,12.07
2019-01-18T09:34:28.842Z,12.60
2019-01-18T09:37:33.938Z,12.43
2019-01-18T09:40:38.902Z,11.33
2019-01-18T09:43:44.198Z,8.80
2019-01-18T09:46:49.166Z,9.37
2019-01-18T09:49:54.253Z,8.30
2019-01-18T09:52:59.740Z,10.70
2019-01-18T09:56:05.150Z,8.47
2019-01-18T09:59:10.351Z,7.43
2019-01-18T10:02:15.254Z,10.00
2019-01-18T10:05:20.549Z,10.73
2019-01-18T10:08:25.546Z,7.87
2019-01-18T10:11:30.712Z,9.40
2019-01-18T10:14:37.217Z,9.43
2019-01-18T10:17:42.327Z,8.07
2019-01-18T10:20:47.429Z,7.47
2019-01-18T10:23:52.489Z,8.70
2019-01-18T10:26:57.633Z,7.93
2019-01-18T10:30:02.769Z,10.83
2019-01-18T10:33:07.862Z,7.60
2019-01-18T10:36:12.886Z,7.80
2019-01-18T10:39:17.998Z,9.63
2019-01-18T10:42:23.130Z,11.03
2019-01-18T10:45:28.250Z,11.17
2019-01-18T10:48:33.228Z,10.23
2019-01-18T10:51:38.400Z,11.67
2019-01-18T10:54:43.686Z,9.40
2019-01-18T10:57:49.112Z,9.90
2019-01-18T11:00:54.058Z,10.80
2019-01-18T11:03:59.176Z,10.33
2019-01-18T11:07:04.087Z,11.30
2019-01-18T11:10:10.340Z,11.13
2019-01-18T11:13:15.286Z,8.80
2019-01-18T11:16:20.285Z,9.37
2019-01-18T11:19:25.299Z,9.80
2019-01-18T11:22:30.612Z,10.03
2019-01-18T11:25:35.798Z,10.53
2019-01-18T11:28:40.866Z,10.20
2019-01-18T11:31:46.026Z,8.47
2019-01-18T11:34:51.151Z,8.50
2019-01-18T11:37:56.087Z,9.77
2019-01-18T11:41:00.978Z,8.27
2019-01-18T11:44:06.105Z,8.17
2019-01-18T11:47:11.318Z,5.83
2019-01-18T11:50:21.464Z,4.30
2019-01-18T11:53:27.020Z,3.57
2019-01-18T11:56:32.315Z,4.93
2019-01-18T11:59:37.188Z,4.57
2019-01-18T12:02:42.203Z,6.87
2019-01-18T12:05:47.248Z,3.50
2019-01-18T12:08:52.491Z,3.93
2019-01-18T12:11:57.282Z,3.40
2019-01-18T12:15:02.296Z,2.53
2019-01-18T12:18:07.629Z,2.53
2019-01-18T12:21:12.681Z,2.50
2019-01-18T12:24:18.088Z,2.00
2019-01-18T12:27:23.136Z,1.60
2019-01-18T12:30:35.454Z,1.53
2019-01-18T12:33:40.507Z,1.53
2019-01-18T12:36:45.590Z,2.10
2019-01-18T12:39:51.847Z,2.60
2019-01-18T12:42:57.844Z,1.37
2019-01-18T12:46:02.893Z,1.90
2019-01-18T12:49:08.009Z,2.70
2019-01-18T12:52:13.053Z,3.10
2019-01-18T12:55:18.168Z,1.67
2019-01-18T12:58:23.385Z,1.53
2019-01-18T13:01:28.458Z,2.23
2019-01-18T13:04:33.312Z,2.77
2019-01-18T13:07:38.298Z,2.37
2019-01-18T13:10:43.457Z,2.67
2019-01-18T13:13:48.377Z,2.90
2019-01-18T13:16:53.356Z,1.30
2019-01-18T13:19:58.531Z,2.97
2019-01-18T13:23:03.702Z,2.13
2019-01-18T13:26:08.981Z,1.60
2019-01-18T13:29:14.120Z,4.47
2019-01-18T13:32:19.000Z,1.47
2019-01-18T13:35:23.885Z,1.90
2019-01-18T13:38:28.893Z,1.47
2019-01-18T13:41:33.885Z,2.93
2019-01-18T13:44:43.567Z,1.33
2019-01-18T13:47:46.106Z,2.87
2019-01-18T13:50:51.347Z,2.43
2019-01-18T13:53:56.379Z,0.83
2019-01-18T13:57:01.652Z,4.90
2019-01-18T14:00:07.145Z,1.63
2019-01-18T14:03:12.153Z,4.83
2019-01-18T14:06:17.213Z,2.27
2019-01-18T14:09:22.448Z,6.53
2019-01-18T14:12:27.546Z,1.70
2019-01-18T14:15:35.253Z,1.20
2019-01-18T14:18:40.492Z,1.70
2019-01-18T14:21:45.548Z,3.87
2019-01-18T14:24:50.742Z,1.63
2019-01-18T14:27:55.889Z,1.07
2019-01-18T14:31:01.041Z,3.17
2019-01-18T14:34:06.023Z,0.90
2019-01-18T14:37:11.309Z,1.17
2019-01-18T14:40:18.421Z,1.00
2019-01-18T14:43:23.435Z,1.00
2019-01-18T14:46:28.614Z,1.40
2019-01-18T14:49:34.936Z,2.20
2019-01-18T14:52:39.947Z,1.43
2019-01-18T14:55:47.238Z,1.53
2019-01-18T14:58:52.227Z,1.70
2019-01-18T15:01:57.165Z,3.90
2019-01-18T15:05:02.503Z,1.23
2019-01-18T15:08:08.596Z,2.53
2019-01-18T15:11:13.628Z,1.10
2019-01-18T15:14:18.474Z,5.03
2019-01-18T15:17:23.461Z,3.53
2019-01-18T15:20:30.187Z,1.47
2019-01-18T15:23:35.311Z,1.47
2019-01-18T15:26:40.296Z,4.00
2019-01-18T15:29:45.677Z,1.47
2019-01-18T15:32:50.842Z,3.27
2019-01-18T15:35:56.169Z,1.40
2019-01-18T15:39:01.328Z,2.20
2019-01-18T15:42:06.459Z,2.97
2019-01-18T15:45:12.131Z,2.80
2019-01-18T15:48:17.259Z,2.37
2019-01-18T15:51:22.487Z,1.83
2019-01-18T15:54:27.686Z,3.53
2019-01-18T15:57:32.718Z,2.87
2019-01-18T16:00:39.960Z,4.10
2019-01-18T16:03:47.335Z,7.57
2019-01-18T16:06:52.669Z,1.53
2019-01-18T16:09:57.709Z,4.83
2019-01-18T16:13:03.322Z,4.63
2019-01-18T16:16:31.469Z,5.30
2019-01-18T16:19:36.779Z,5.40
2019-01-18T16:22:41.857Z,4.00
2019-01-18T16:25:47.055Z,3.07
2019-01-18T16:28:51.840Z,3.43
2019-01-18T16:31:57.002Z,3.10
2019-01-18T16:35:01.964Z,5.20
2019-01-18T16:38:08.353Z,7.90
2019-01-18T16:41:13.431Z,6.03
2019-01-18T16:44:18.423Z,6.60
2019-01-18T16:47:23.553Z,4.70
2019-01-18T16:50:28.447Z,5.30
2019-01-18T16:53:33.640Z,5.73
2019-01-18T16:56:38.863Z,6.43
2019-01-18T16:59:44.539Z,6.60
2019-01-18T17:02:49.886Z,4.80
2019-01-18T17:05:55.252Z,2.07
2019-01-18T17:09:00.348Z,2.90
2019-01-18T17:12:05.464Z,2.53
2019-01-18T17:15:11.247Z,1.87
2019-01-18T17:18:16.270Z,2.90
2019-01-18T17:21:21.327Z,4.13
2019-01-18T17:24:26.311Z,5.17
2019-01-18T17:27:31.263Z,2.67
2019-01-18T17:30:36.338Z,5.20
2019-01-18T17:33:42.391Z,5.13
2019-01-18T17:36:54.931Z,5.40
2019-01-18T17:40:24.412Z,3.10
2019-01-18T17:43:59.090Z,5.33
2019-01-18T17:47:21.819Z,4.30
2019-01-18T17:51:11.618Z,2.97
2019-01-18T17:54:45.784Z,4.63
2019-01-18T17:58:34.254Z,4.83
2019-01-18T18:02:26.780Z,9.00
2019-01-18T18:06:13.596Z,3.30
2019-01-18T18:09:44.236Z,6.63
2019-01-18T18:13:28.065Z,9.90
2019-01-18T18:17:02.382Z,6.37
2019-01-18T18:20:33.549Z,3.80
2019-01-18T18:23:51.577Z,9.27
2019-01-18T18:27:39.620Z,10.67
2019-01-18T18:31:01.582Z,9.93
2019-01-18T18:34:53.676Z,11.33
2019-01-18T18:38:36.276Z,13.47
2019-01-18T18:42:15.668Z,15.50
2019-01-18T18:45:56.809Z,11.17
2019-01-18T18:49:21.983Z,15.23
2019-01-18T18:53:23.043Z,14.20
2019-01-18T18:56:45.726Z,18.90
2019-01-18T19:00:17.778Z,11.13
2019-01-18T19:04:05.773Z,8.23
2019-01-18T19:07:42.916Z,8.80
2019-01-18T19:11:25.248Z,8.37
2019-01-18T19:14:52.731Z,10.03
2019-01-18T19:18:40.697Z,11.57
2019-01-18T19:22:11.452Z,8.20
2019-01-18T19:26:12.317Z,16.27
2019-01-18T19:29:49.725Z,12.73
2019-01-18T19:33:08.869Z,12.47
2019-01-18T19:36:55.193Z,14.30
2019-01-18T19:40:44.177Z,11.13
2019-01-18T19:44:18.799Z,8.10
2019-01-18T19:47:38.220Z,9.10
2019-01-18T19:51:11.132Z,8.90
2019-01-18T19:54:44.293Z,11.17
2019-01-18T19:58:33.313Z,10.27
2019-01-18T20:02:31.227Z,11.17
2019-01-18T20:06:12.547Z,8.60
2019-01-18T20:10:10.348Z,8.83
2019-01-18T20:14:05.229Z,29.47
2019-01-18T20:18:02.853Z,15.63
2019-01-18T20:21:45.765Z,15.77
2019-01-18T20:25:46.794Z,14.67
2019-01-18T20:29:24.595Z,11.67
2019-01-18T20:32:49.481Z,11.30
2019-01-18T20:36:26.100Z,9.30
2019-01-18T20:40:08.073Z,13.73
2019-01-18T20:43:30.339Z,11.07
2019-01-18T20:47:16.860Z,11.20
2019-01-18T20:51:05.927Z,15.10
2019-01-18T20:55:08.785Z,14.70
2019-01-18T20:58:41.973Z,11.27
2019-01-18T21:02:45.952Z,11.60
2019-01-18T21:06:08.568Z,13.43
2019-01-18T21:09:42.726Z,7.80
2019-01-18T21:13:34.746Z,11.00
2019-01-18T21:17:10.490Z,12.50
2019-01-18T21:20:52.362Z,12.50
2019-01-18T21:24:19.743Z,10.03
2019-01-18T21:28:14.394Z,10.00
2019-01-18T21:31:59.815Z,9.63
2019-01-18T21:35:26.938Z,10.60
2019-01-18T21:39:05.064Z,9.83
2019-01-18T21:42:39.458Z,13.50
2019-01-18T21:46:31.123Z,11.87
2019-01-18T21:50:01.245Z,9.00
2019-01-18T21:53:17.433Z,9.67
2019-01-18T21:57:05.318Z,9.57
2019-01-18T22:01:06.249Z,11.50
2019-01-18T22:04:40.662Z,8.83
2019-01-18T22:08:05.062Z,10.73
2019-01-18T22:11:37.036Z,13.53
2019-01-18T22:15:06.929Z,9.27
2019-01-18T22:18:55.560Z,12.27
2019-01-18T22:22:41.966Z,9.40
2019-01-18T22:26:42.644Z,8.93
2019-01-18T22:30:15.334Z,11.97
2019-01-18T22:33:50.404Z,10.53
2019-01-18T22:38:06.531Z,19.00
2019-01-18T22:41:47.486Z,30.70
2019-01-18T22:45:38.413Z,23.07
2019-01-18T22:49:11.612Z,16.27
2019-01-18T22:52:41.405Z,15.40
2019-01-18T22:56:11.571Z,16.87
2019-01-18T23:00:07.913Z,14.17
2019-01-18T23:03:52.282Z,9.03
2019-01-18T23:07:39.816Z,7.57
2019-01-18T23:11:09.368Z,9.90
2019-01-18T23:14:37.289Z,8.10
2019-01-18T23:18:07.580Z,6.97
2019-01-18T23:21:48.255Z,7.97
2019-01-18T23:25:04.393Z,10.70
2019-01-18T23:28:55.797Z,8.20
2019-01-18T23:32:30.103Z,8.67
2019-01-18T23:36:06.936Z,10.20
2019-01-18T23:39:48.361Z,8.47
2019-01-18T23:43:29.292Z,13.87
2019-01-18T23:47:08.039Z,12.40
2019-01-18T23:50:49.613Z,9.37
2019-01-18T23:54:19.529Z,13.30
2019-01-18T23:57:50.405Z,7.60
